createdAt,value
2018-09-05T00:03:21.101Z,12.70
2018-09-05T00:05:50.154Z,12.80
2018-09-05T00:08:19.172Z,12.90
2018-09-05T01:03:18.509Z,12.10
2018-09-05T01:05:47.492Z,12.20
2018-09-05T01:08:16.498Z,12.30
2018-09-05T02:02:45.181Z,11.70
2018-09-05T02:05:14.237Z,11.80
2018-09-05T02:07:43.233Z,12.00
2018-09-05T03:03:22.061Z,11.30
2018-09-05T03:05:51.971Z,11.40
2018-09-05T03:08:20.968Z,11.50
2018-09-05T04:03:45.333Z,11.10
2018-09-05T04:06:18.502Z,11.30
2018-09-05T04:08:47.747Z,11.40
2018-09-05T05:04:05.163Z,15.90
2018-09-05T05:06:34.240Z,14.00
2018-09-05T05:09:03.584Z,14.30
2018-09-05T06:02:51.590Z,15.90
2018-09-05T06:05:20.637Z,16.00
2018-09-05T06:07:49.716Z,16.10
2018-09-05T06:10:19.204Z,16.20
2018-09-05T07:02:45.778Z,16.50
2018-09-05T07:05:14.887Z,16.50
2018-09-05T07:07:44.038Z,16.70
2018-09-05T07:10:13.765Z,17.10
2018-09-05T08:03:21.681Z,18.40
2018-09-05T08:05:50.761Z,18.50
2018-09-05T08:08:19.780Z,18.50
2018-09-05T08:10:49.985Z,18.50
2018-09-05T09:02:37.033Z,19.30
2018-09-05T09:05:06.640Z,19.40
2018-09-05T09:07:35.782Z,19.90
2018-09-05T09:10:05.925Z,20.30
2018-09-05T10:02:56.498Z,21.90
2018-09-05T10:05:30.618Z,22.00
2018-09-05T10:08:04.942Z,22.50
2018-09-05T11:02:37.088Z,23.00
2018-09-05T11:05:06.216Z,23.40
2018-09-05T11:07:35.260Z,23.00
2018-09-05T11:10:05.170Z,23.40
2018-09-05T12:03:08.867Z,23.80
2018-09-05T12:05:52.481Z,23.70
2018-09-05T12:08:21.749Z,23.90
2018-09-05T13:02:49.818Z,23.80
2018-09-05T13:05:18.848Z,23.70
2018-09-05T13:07:47.862Z,23.60
2018-09-05T14:02:43.166Z,23.70
2018-09-05T14:05:12.515Z,23.60
2018-09-05T14:07:41.934Z,23.90
2018-09-05T15:02:40.366Z,25.40
2018-09-05T15:05:09.340Z,25.60
2018-09-05T15:07:38.547Z,25.60
2018-09-05T16:02:40.449Z,18.90
2018-09-05T16:05:09.557Z,18.70
2018-09-05T16:07:38.577Z,18.80
2018-09-05T16:10:07.926Z,19.00
2018-09-05T17:02:40.253Z,17.10
2018-09-05T17:05:09.290Z,17.10
2018-09-05T17:07:38.291Z,17.10
2018-09-05T18:02:39.609Z,15.80
2018-09-05T18:05:08.846Z,15.70
2018-09-05T18:07:38.172Z,15.90
2018-09-05T19:02:37.432Z,15.50
2018-09-05T19:05:06.543Z,15.50
2018-09-05T19:07:35.604Z,15.70
2018-09-05T19:10:05.697Z,15.80
2018-09-05T20:02:37.005Z,14.70
2018-09-05T20:05:06.094Z,14.70
2018-09-05T20:07:35.145Z,14.80
2018-09-05T20:10:04.382Z,14.90
2018-09-05T21:02:37.305Z,13.20
2018-09-05T21:05:06.320Z,13.30
2018-09-05T21:07:35.445Z,13.50
2018-09-05T21:10:05.813Z,13.80
2018-09-05T22:03:00.249Z,14.10
2018-09-05T22:05:29.284Z,14.10
2018-09-05T22:07:58.348Z,14.10
2018-09-05T22:10:27.539Z,14.20
2018-09-05T23:02:48.050Z,14.10
2018-09-05T23:07:35.325Z,14.00
